TimeMDT,TemperatureF,Dew PointF,Humidity,Sea Level PressureIn,VisibilityMPH,Wind Direction,Wind SpeedMPH,Gust SpeedMPH,PrecipitationIn,Events,Conditions,WindDirDegrees,DateUTC
12:35 AM,46.4,32.0,57,30.18,10.0,SSW,4.6,-,N/A,,Clear,210,2012-10-31 06:35:00
12:55 AM,48.2,35.6,62,30.18,10.0,SSW,4.6,-,N/A,,Clear,200,2012-10-31 06:55:00
1:15 AM,42.8,30.2,61,30.18,10.0,Calm,Calm,-,N/A,,Clear,0,2012-10-31 07:15:00
1:35 AM,41.0,33.8,76,30.18,10.0,ENE,3.5,-,N/A,,Clear,70,2012-10-31 07:35:00
1:55 AM,44.6,30.2,57,30.18,10.0,South,5.8,-,N/A,,Clear,180,2012-10-31 07:55:00
2:15 AM,46.4,30.2,53,30.18,10.0,South,9.2,-,N/A,,Clear,180,2012-10-31 08:15:00
2:55 AM,46.4,32.0,57,30.18,10.0,SSW,4.6,-,N/A,,Clear,200,2012-10-31 08:55:00
3:15 AM,44.6,30.2,57,30.19,10.0,SSW,3.5,-,N/A,,Clear,210,2012-10-31 09:15:00
3:55 AM,44.6,33.8,66,30.18,10.0,South,6.9,-,N/A,,Clear,180,2012-10-31 09:55:00
4:35 AM,44.6,30.2,57,30.17,10.0,Calm,Calm,-,N/A,,Clear,0,2012-10-31 10:35:00
4:55 AM,39.2,30.2,70,30.17,10.0,Calm,Calm,-,N/A,,Clear,0,2012-10-31 10:55:00
5:55 AM,39.2,30.2,70,30.18,10.0,Calm,Calm,-,N/A,,Clear,0,2012-10-31 11:55:00
6:35 AM,44.6,28.4,53,30.19,10.0,ESE,6.9,-,N/A,,Clear,110,2012-10-31 12:35:00
6:49 AM,41.0,30.2,65,30.19,15.0,SSE,6.9,-,N/A,,Clear,150,2012-10-31 12:49:00
7:50 AM,39.2,30.2,70,30.19,15.0,East,3.5,-,N/A,,Partly Cloudy,100,2012-10-31 13:50:00
8:47 AM,41.0,30.2,65,30.20,15.0,Calm,Calm,-,N/A,,Partly Cloudy,0,2012-10-31 14:47:00
9:47 AM,48.2,32.0,54,30.21,15.0,SE,6.9,-,N/A,,Partly Cloudy,130,2012-10-31 15:47:00
10:55 AM,53.6,32.0,44,30.20,15.0,East,3.5,-,N/A,,Partly Cloudy,90,2012-10-31 16:55:00
11:50 AM,55.4,35.6,47,30.19,15.0,Variable,5.8,-,N/A,,Partly Cloudy,0,2012-10-31 17:50:00
12:50 PM,60.8,33.8,36,30.16,15.0,Variable,5.8,-,N/A,,Partly Cloudy,0,2012-10-31 18:50:00
2:50 PM,64.4,33.8,32,-9999,15.0,North,-9999.0,-,N/A,,Partly Cloudy,0,2012-10-31 20:50:00
3:50 PM,66.2,35.6,32,30.07,15.0,Calm,Calm,-,N/A,,Partly Cloudy,0,2012-10-31 21:50:00
5:47 PM,62.6,39.2,42,30.04,10.0,Calm,Calm,-,N/A,,Scattered Clouds,0,2012-10-31 23:47:00
6:50 PM,53.6,39.2,58,30.05,15.0,Calm,Calm,-,N/A,,Scattered Clouds,0,2012-11-01 00:50:00
8:49 PM,50.0,37.4,62,30.05,15.0,Calm,Calm,-,N/A,,Scattered Clouds,0,2012-11-01 02:49:00
8:55 PM,50.0,37.4,62,30.05,10.0,Calm,Calm,-,N/A,,Clear,0,2012-11-01 02:55:00
9:15 PM,51.8,33.8,50,30.05,10.0,ESE,5.8,-,N/A,,Clear,110,2012-11-01 03:15:00
9:35 PM,53.6,30.2,41,30.05,10.0,East,10.4,-,N/A,,Clear,100,2012-11-01 03:35:00
10:15 PM,57.2,30.2,36,30.05,10.0,ESE,9.2,-,N/A,,Clear,110,2012-11-01 04:15:00
10:35 PM,53.6,30.2,41,30.04,10.0,East,4.6,-,N/A,,Clear,80,2012-11-01 04:35:00
10:55 PM,53.6,28.4,38,30.04,10.0,ESE,5.8,-,N/A,,Clear,110,2012-11-01 04:55:00
11:15 PM,53.6,28.4,38,30.05,10.0,West,9.2,-,N/A,,Clear,280,2012-11-01 05:15:00
11:36 PM,59.0,30.2,34,30.05,10.0,South,4.6,-,N/A,,Clear,170,2012-11-01 05:36:00